createdAt,value
2019-02-14T00:00:14.250Z,1023.76
2019-02-14T00:01:14.241Z,1023.76
2019-02-14T00:02:14.217Z,1023.72
2019-02-14T00:03:14.217Z,1023.71
2019-02-14T00:04:14.238Z,1023.69
2019-02-14T00:05:16.505Z,1023.69
2019-02-14T00:06:14.184Z,1023.70
2019-02-14T00:07:14.194Z,1023.71
2019-02-14T00:08:14.160Z,1023.72
2019-02-14T00:09:14.160Z,1023.71
2019-02-14T00:10:14.126Z,1023.74
2019-02-14T00:11:14.119Z,1023.71
2019-02-14T00:12:14.097Z,1023.69
2019-02-14T00:13:14.075Z,1023.72
2019-02-14T00:14:14.052Z,1023.72
2019-02-14T00:15:14.048Z,1023.72
2019-02-14T00:16:14.075Z,1023.76
2019-02-14T00:17:14.065Z,1023.76
2019-02-14T00:18:14.022Z,1023.77
2019-02-14T00:19:14.017Z,1023.76
2019-02-14T00:20:13.992Z,1023.74
2019-02-14T00:21:14.020Z,1023.71
2019-02-14T00:22:13.979Z,1023.75
2019-02-14T00:23:13.941Z,1023.73
2019-02-14T00:24:13.963Z,1023.68
2019-02-14T00:25:13.926Z,1023.68
2019-02-14T00:26:13.966Z,1023.67
2019-02-14T00:27:13.905Z,1023.68
2019-02-14T00:28:13.879Z,1023.67
2019-02-14T00:29:13.929Z,1023.70
2019-02-14T00:30:13.872Z,1023.67
2019-02-14T00:31:13.859Z,1023.68
2019-02-14T00:32:13.826Z,1023.67
2019-02-14T00:33:13.826Z,1023.65
2019-02-14T00:34:13.822Z,1023.63
2019-02-14T00:35:13.794Z,1023.65
2019-02-14T00:36:13.810Z,1023.65
2019-02-14T00:37:13.795Z,1023.69
2019-02-14T00:38:13.755Z,1023.63
2019-02-14T00:39:13.753Z,1023.67
2019-02-14T00:40:13.761Z,1023.63
2019-02-14T00:41:13.720Z,1023.64
2019-02-14T00:42:13.726Z,1023.64
2019-02-14T00:43:13.701Z,1023.63
2019-02-14T00:44:13.665Z,1023.57
2019-02-14T00:45:13.683Z,1023.58
2019-02-14T00:46:13.643Z,1023.57
2019-02-14T00:47:13.663Z,1023.55
2019-02-14T00:48:13.640Z,1023.56
2019-02-14T00:49:13.626Z,1023.53
2019-02-14T00:50:13.591Z,1023.53
2019-02-14T00:51:13.619Z,1023.52
2019-02-14T00:52:13.599Z,1023.53
2019-02-14T00:53:13.557Z,1023.50
2019-02-14T00:54:13.553Z,1023.47
2019-02-14T00:55:13.524Z,1023.49
2019-02-14T00:56:13.517Z,1023.47
2019-02-14T00:57:13.519Z,1023.45
2019-02-14T00:58:13.597Z,1023.46
2019-02-14T00:59:13.485Z,1023.44
2019-02-14T01:00:13.487Z,1023.43
2019-02-14T01:01:13.445Z,1023.45
2019-02-14T01:02:13.433Z,1023.42
2019-02-14T01:03:13.419Z,1023.38
2019-02-14T01:04:13.412Z,1023.40
2019-02-14T01:05:13.431Z,1023.40
2019-02-14T01:06:13.384Z,1023.41
2019-02-14T01:07:13.369Z,1023.46
2019-02-14T01:08:13.360Z,1023.42
2019-02-14T01:09:13.350Z,1023.43
2019-02-14T01:10:13.342Z,1023.44
2019-02-14T01:11:13.324Z,1023.46
2019-02-14T01:12:13.313Z,1023.48
2019-02-14T01:13:13.285Z,1023.45
2019-02-14T01:14:13.278Z,1023.47
2019-02-14T01:15:13.270Z,1023.42
2019-02-14T01:16:13.249Z,1023.43
2019-02-14T01:17:13.247Z,1023.46
2019-02-14T01:18:13.267Z,1023.44
2019-02-14T01:19:13.219Z,1023.45
2019-02-14T01:20:13.213Z,1023.48
2019-02-14T01:21:13.184Z,1023.47
2019-02-14T01:22:13.218Z,1023.49
2019-02-14T01:23:13.151Z,1023.50
2019-02-14T01:24:13.185Z,1023.53
2019-02-14T01:25:13.182Z,1023.52
2019-02-14T01:26:13.119Z,1023.52
2019-02-14T01:27:13.216Z,1023.52
2019-02-14T01:28:13.131Z,1023.57
2019-02-14T01:29:13.242Z,1023.62
2019-02-14T01:30:13.084Z,1023.60
2019-02-14T01:31:13.066Z,1023.60
2019-02-14T01:32:13.049Z,1023.64
2019-02-14T01:33:13.059Z,1023.60
2019-02-14T01:34:13.017Z,1023.61
2019-02-14T01:35:13.011Z,1023.58
2019-02-14T01:36:12.983Z,1023.61
2019-02-14T01:37:12.977Z,1023.56
2019-02-14T01:38:12.961Z,1023.62
2019-02-14T01:39:12.976Z,1023.57
2019-02-14T01:40:12.985Z,1023.58
2019-02-14T01:41:12.917Z,1023.59
2019-02-14T01:42:12.917Z,1023.51
2019-02-14T01:43:12.901Z,1023.51
2019-02-14T01:44:12.913Z,1023.54
2019-02-14T01:45:12.874Z,1023.53
2019-02-14T01:46:12.902Z,1023.52
2019-02-14T01:47:12.834Z,1023.53
2019-02-14T01:48:12.842Z,1023.53
2019-02-14T01:49:12.821Z,1023.52
2019-02-14T01:50:12.789Z,1023.50
2019-02-14T01:51:12.768Z,1023.52
2019-02-14T01:52:12.768Z,1023.49
2019-02-14T01:53:12.760Z,1023.50
2019-02-14T01:54:12.795Z,1023.52
2019-02-14T01:55:12.763Z,1023.49
2019-02-14T01:56:12.711Z,1023.48
2019-02-14T01:57:12.703Z,1023.47
2019-02-14T01:58:12.689Z,1023.47
2019-02-14T01:59:12.699Z,1023.41
2019-02-14T02:00:12.651Z,1023.41
2019-02-14T02:01:12.656Z,1023.35
2019-02-14T02:02:12.661Z,1023.39
2019-02-14T02:03:12.614Z,1023.35
2019-02-14T02:04:12.628Z,1023.31
2019-02-14T02:05:12.614Z,1023.25
2019-02-14T02:06:12.596Z,1023.29
2019-02-14T02:07:12.581Z,1023.25
2019-02-14T02:08:12.584Z,1023.27
2019-02-14T02:09:12.592Z,1023.25
2019-02-14T02:10:12.539Z,1023.27
2019-02-14T02:11:12.519Z,1023.27
2019-02-14T02:12:12.499Z,1023.25
2019-02-14T02:13:12.505Z,1023.27
2019-02-14T02:14:12.500Z,1023.23
2019-02-14T02:15:12.460Z,1023.29
2019-02-14T02:16:12.436Z,1023.29
2019-02-14T02:17:12.432Z,1023.31
2019-02-14T02:18:12.419Z,1023.32
2019-02-14T02:19:12.415Z,1023.31
2019-02-14T02:20:12.423Z,1023.32
2019-02-14T02:21:12.373Z,1023.33
2019-02-14T02:22:12.354Z,1023.31
2019-02-14T02:23:12.342Z,1023.33
2019-02-14T02:24:12.332Z,1023.29
2019-02-14T02:25:12.333Z,1023.31
2019-02-14T02:26:12.303Z,1023.28
2019-02-14T02:27:12.332Z,1023.34
2019-02-14T02:28:12.275Z,1023.31
2019-02-14T02:29:12.295Z,1023.31
2019-02-14T02:30:12.364Z,1023.29
2019-02-14T02:31:12.270Z,1023.29
2019-02-14T02:32:12.288Z,1023.29
2019-02-14T02:33:12.215Z,1023.25
2019-02-14T02:34:12.191Z,1023.26
2019-02-14T02:35:12.212Z,1023.27
2019-02-14T02:36:12.182Z,1023.30
2019-02-14T02:37:12.160Z,1023.33
2019-02-14T02:38:12.144Z,1023.27
2019-02-14T02:39:12.137Z,1023.25
2019-02-14T02:40:12.207Z,1023.23
2019-02-14T02:41:12.108Z,1023.24
2019-02-14T02:42:12.116Z,1023.20
2019-02-14T02:43:12.083Z,1023.19
2019-02-14T02:44:12.100Z,1023.20
2019-02-14T02:45:12.066Z,1023.15
2019-02-14T02:46:12.066Z,1023.16
2019-02-14T02:47:12.060Z,1023.16
2019-02-14T02:48:12.006Z,1023.16
2019-02-14T02:49:12.007Z,1023.16
2019-02-14T02:50:12.007Z,1023.16
2019-02-14T02:51:11.987Z,1023.19
2019-02-14T02:52:12.024Z,1023.17
2019-02-14T02:53:11.966Z,1023.18
2019-02-14T02:54:11.958Z,1023.20
2019-02-14T02:55:11.923Z,1023.19
2019-02-14T02:56:11.900Z,1023.16
2019-02-14T02:57:11.886Z,1023.18
2019-02-14T02:58:11.883Z,1023.20
2019-02-14T03:13:52.308Z,1023.28
2019-02-14T03:14:52.038Z,1023.32
2019-02-14T03:15:52.017Z,1023.31
2019-02-14T03:16:52.174Z,1023.30
2019-02-14T03:17:51.930Z,1023.34
2019-02-14T03:18:51.919Z,1023.37
2019-02-14T03:19:51.945Z,1023.38
2019-02-14T03:20:51.933Z,1023.41
2019-02-14T03:21:51.885Z,1023.42
2019-02-14T03:22:51.895Z,1023.41
2019-02-14T03:23:51.877Z,1023.43
2019-02-14T03:24:51.816Z,1023.35
2019-02-14T03:25:51.831Z,1023.36
2019-02-14T03:26:51.804Z,1023.40
2019-02-14T03:27:51.792Z,1023.37
2019-02-14T03:28:51.796Z,1023.41
2019-02-14T03:29:51.746Z,1023.38
2019-02-14T03:30:51.725Z,1023.39
2019-02-14T03:31:51.730Z,1023.40
2019-02-14T03:32:51.723Z,1023.44
2019-02-14T03:33:51.770Z,1023.43
2019-02-14T03:34:51.759Z,1023.47
2019-02-14T03:35:51.649Z,1023.48
2019-02-14T03:36:51.679Z,1023.50
2019-02-14T03:37:51.658Z,1023.55
2019-02-14T03:38:51.672Z,1023.56
2019-02-14T03:39:51.595Z,1023.56
2019-02-14T03:40:51.591Z,1023.58
2019-02-14T03:41:51.582Z,1023.60
2019-02-14T03:42:51.572Z,1023.58
2019-02-14T03:43:51.542Z,1023.59
2019-02-14T03:44:51.522Z,1023.57
2019-02-14T03:45:51.506Z,1023.58
2019-02-14T03:46:51.495Z,1023.61
2019-02-14T03:47:51.488Z,1023.57
2019-02-14T03:48:51.467Z,1023.59
2019-02-14T03:49:51.479Z,1023.58
2019-02-14T03:50:51.466Z,1023.58
2019-02-14T03:51:51.431Z,1023.53
2019-02-14T03:52:51.471Z,1023.59
2019-02-14T03:53:51.407Z,1023.53
2019-02-14T03:54:51.400Z,1023.56
2019-02-14T03:55:51.373Z,1023.57
2019-02-14T03:56:51.394Z,1023.57
2019-02-14T03:57:51.333Z,1023.57
2019-02-14T03:58:51.325Z,1023.54
2019-02-14T03:59:51.349Z,1023.54
2019-02-14T04:00:51.327Z,1023.56
2019-02-14T04:01:51.308Z,1023.54
2019-02-14T04:02:51.295Z,1023.58
2019-02-14T04:03:51.285Z,1023.57
2019-02-14T04:04:51.306Z,1023.57
2019-02-14T04:05:51.270Z,1023.57
2019-02-14T04:06:51.234Z,1023.58
2019-02-14T04:07:51.258Z,1023.54
2019-02-14T04:08:51.180Z,1023.60
2019-02-14T04:09:51.161Z,1023.57
2019-02-14T04:10:51.181Z,1023.60
2019-02-14T04:11:51.145Z,1023.59
2019-02-14T04:12:51.120Z,1023.60
2019-02-14T04:13:51.181Z,1023.65
2019-02-14T04:14:51.102Z,1023.65
2019-02-14T04:15:51.111Z,1023.70
2019-02-14T04:16:51.069Z,1023.67
2019-02-14T04:17:51.118Z,1023.65
2019-02-14T04:18:51.037Z,1023.67
2019-02-14T04:19:51.033Z,1023.65
2019-02-14T04:20:51.071Z,1023.67
2019-02-14T04:21:51.026Z,1023.63
2019-02-14T04:22:50.979Z,1023.67
2019-02-14T04:23:50.969Z,1023.63
2019-02-14T04:24:51.003Z,1023.66
2019-02-14T04:25:50.982Z,1023.69
2019-02-14T04:26:50.945Z,1023.69
2019-02-14T04:27:50.938Z,1023.68
2019-02-14T04:28:50.913Z,1023.73
2019-02-14T04:29:50.904Z,1023.69
2019-02-14T04:30:50.869Z,1023.72
2019-02-14T04:31:50.906Z,1023.71
2019-02-14T04:32:59.773Z,1023.69
2019-02-14T04:34:55.927Z,1023.63
2019-02-14T04:35:55.306Z,1023.66
2019-02-14T04:37:04.214Z,1023.65
2019-02-14T04:39:00.017Z,1023.62
2019-02-14T04:39:59.751Z,1023.64
2019-02-14T04:40:59.706Z,1023.66
2019-02-14T04:41:59.795Z,1023.64
2019-02-14T04:42:59.688Z,1023.63
2019-02-14T04:43:59.801Z,1023.67
2019-02-14T04:44:59.654Z,1023.68
2019-02-14T04:45:59.783Z,1023.71
2019-02-14T04:46:59.620Z,1023.75
2019-02-14T04:47:59.609Z,1023.76
2019-02-14T04:48:59.599Z,1023.78
2019-02-14T04:49:59.578Z,1023.77
2019-02-14T04:50:59.584Z,1023.79
2019-02-14T04:51:59.546Z,1023.82
2019-02-14T04:52:59.521Z,1023.78
2019-02-14T04:53:59.509Z,1023.78
2019-02-14T04:54:59.509Z,1023.76
2019-02-14T04:55:59.482Z,1023.75
2019-02-14T04:56:59.474Z,1023.73
2019-02-14T04:57:59.475Z,1023.75
2019-02-14T04:58:59.442Z,1023.73
2019-02-14T04:59:59.444Z,1023.73
2019-02-14T05:00:59.471Z,1023.72
2019-02-14T05:02:00.651Z,1023.78
2019-02-14T05:02:59.903Z,1023.76
2019-02-14T05:03:59.444Z,1023.81
2019-02-14T05:04:59.373Z,1023.84
2019-02-14T05:05:59.360Z,1023.85
2019-02-14T05:06:59.547Z,1023.84
2019-02-14T05:07:59.396Z,1023.86
2019-02-14T05:08:59.411Z,1023.84
2019-02-14T05:09:59.281Z,1023.82
2019-02-14T05:10:59.317Z,1023.81
2019-02-14T05:11:59.265Z,1023.84
2019-02-14T05:12:59.254Z,1023.81
2019-02-14T05:14:00.201Z,1023.81
2019-02-14T05:14:59.281Z,1023.82
2019-02-14T05:15:59.196Z,1023.83
2019-02-14T05:16:59.204Z,1023.84
2019-02-14T05:17:59.175Z,1023.81
2019-02-14T05:18:59.213Z,1023.88
2019-02-14T05:19:59.154Z,1023.81
2019-02-14T05:20:59.131Z,1023.84
2019-02-14T05:21:59.161Z,1023.79
2019-02-14T05:22:59.126Z,1023.80
2019-02-14T05:23:59.095Z,1023.78
2019-02-14T05:24:59.086Z,1023.80
2019-02-14T05:25:59.055Z,1023.80
2019-02-14T05:26:59.120Z,1023.74
2019-02-14T05:27:59.047Z,1023.74
2019-02-14T05:28:59.030Z,1023.75
2019-02-14T05:29:59.075Z,1023.71
2019-02-14T05:30:59.042Z,1023.75
2019-02-14T05:31:58.984Z,1023.74
2019-02-14T05:32:58.976Z,1023.76
2019-02-14T05:33:58.971Z,1023.79
2019-02-14T05:34:58.935Z,1023.78
2019-02-14T05:35:58.950Z,1023.78
2019-02-14T05:36:58.894Z,1023.81
2019-02-14T05:37:58.917Z,1023.84
2019-02-14T05:38:58.906Z,1023.90
2019-02-14T05:39:58.908Z,1023.91
2019-02-14T05:40:58.878Z,1023.92
2019-02-14T05:41:58.881Z,1023.93
2019-02-14T05:42:58.830Z,1023.93
2019-02-14T05:43:58.814Z,1023.90
2019-02-14T05:44:58.809Z,1023.94
2019-02-14T05:45:58.794Z,1023.93
2019-02-14T05:46:58.794Z,1023.93
2019-02-14T05:47:58.762Z,1023.97
2019-02-14T05:48:58.761Z,1023.92
2019-02-14T05:49:58.791Z,1023.90
2019-02-14T05:50:58.733Z,1023.97
2019-02-14T05:51:58.855Z,1023.92
2019-02-14T05:52:58.782Z,1023.93
2019-02-14T05:53:58.825Z,1023.97
2019-02-14T05:54:58.785Z,1023.90
2019-02-14T05:55:58.711Z,1023.90
2019-02-14T05:56:58.695Z,1023.90
2019-02-14T05:57:58.621Z,1023.91
2019-02-14T05:58:58.717Z,1023.93
2019-02-14T05:59:58.620Z,1023.92
2019-02-14T06:00:58.540Z,1023.94
2019-02-14T06:01:58.562Z,1023.95
2019-02-14T06:02:58.520Z,1023.90
2019-02-14T06:03:58.506Z,1023.94
2019-02-14T06:04:58.532Z,1023.93
2019-02-14T06:05:58.512Z,1023.89
2019-02-14T06:07:01.144Z,1023.93
2019-02-14T06:07:58.488Z,1023.93
2019-02-14T06:08:58.450Z,1023.93
2019-02-14T06:09:58.430Z,1023.95
2019-02-14T06:10:58.430Z,1023.94
2019-02-14T06:11:58.424Z,1023.97
2019-02-14T06:12:58.417Z,1023.99
2019-02-14T06:13:58.359Z,1024.00
2019-02-14T06:14:58.336Z,1024.07
2019-02-14T06:15:58.327Z,1024.06
2019-02-14T06:16:58.325Z,1024.06
2019-02-14T06:17:58.355Z,1024.02
2019-02-14T06:18:58.430Z,1024.03
2019-02-14T06:19:58.367Z,1024.01
2019-02-14T06:20:58.259Z,1024.02
2019-02-14T06:21:58.261Z,1024.05
2019-02-14T06:22:58.303Z,1024.05
2019-02-14T06:23:58.221Z,1024.05
2019-02-14T06:24:58.226Z,1024.04
2019-02-14T06:25:58.186Z,1024.03
2019-02-14T06:26:58.161Z,1024.05
2019-02-14T06:27:58.173Z,1024.11
2019-02-14T06:28:58.260Z,1024.09
2019-02-14T06:29:58.129Z,1024.10
2019-02-14T06:30:58.153Z,1024.12
2019-02-14T06:31:58.094Z,1024.16
2019-02-14T06:32:58.089Z,1024.13
2019-02-14T06:33:58.059Z,1024.17
2019-02-14T06:34:58.063Z,1024.20
2019-02-14T06:35:58.069Z,1024.20
2019-02-14T06:36:58.016Z,1024.23
2019-02-14T06:37:58.010Z,1024.26
2019-02-14T06:38:57.995Z,1024.27
2019-02-14T06:39:57.976Z,1024.27
2019-02-14T06:40:57.960Z,1024.29
2019-02-14T06:41:57.968Z,1024.30
2019-02-14T06:42:57.953Z,1024.35
2019-02-14T06:43:57.910Z,1024.33
2019-02-14T06:44:57.983Z,1024.37
2019-02-14T06:45:57.905Z,1024.36
2019-02-14T06:46:57.889Z,1024.34
2019-02-14T06:47:57.848Z,1024.34
2019-02-14T06:48:57.871Z,1024.32
2019-02-14T06:49:57.832Z,1024.32
2019-02-14T06:50:57.811Z,1024.33
2019-02-14T06:51:57.856Z,1024.34
2019-02-14T06:52:57.790Z,1024.34
2019-02-14T06:53:57.768Z,1024.32
2019-02-14T06:54:57.779Z,1024.34
2019-02-14T06:55:57.757Z,1024.30
2019-02-14T06:56:57.718Z,1024.30
2019-02-14T06:57:57.705Z,1024.31
2019-02-14T06:58:57.701Z,1024.32
2019-02-14T06:59:57.715Z,1024.35
2019-02-14T07:00:57.680Z,1024.35
2019-02-14T07:01:57.676Z,1024.34
2019-02-14T07:02:57.636Z,1024.39
2019-02-14T07:03:57.639Z,1024.39
2019-02-14T07:04:57.604Z,1024.45
2019-02-14T07:05:57.620Z,1024.47
2019-02-14T07:06:57.605Z,1024.43
2019-02-14T07:07:57.570Z,1024.44
2019-02-14T07:08:57.572Z,1024.46
2019-02-14T07:09:57.597Z,1024.43
2019-02-14T07:10:57.766Z,1024.47
2019-02-14T07:11:57.607Z,1024.48
2019-02-14T07:12:57.500Z,1024.49
2019-02-14T07:13:57.469Z,1024.48
2019-02-14T07:14:57.476Z,1024.50
2019-02-14T07:15:57.436Z,1024.52
2019-02-14T07:16:57.425Z,1024.52
2019-02-14T07:17:57.433Z,1024.54
2019-02-14T07:18:57.582Z,1024.54
2019-02-14T07:19:57.450Z,1024.57
2019-02-14T07:20:57.428Z,1024.54
2019-02-14T07:21:57.406Z,1024.58
2019-02-14T07:22:57.345Z,1024.61
2019-02-14T07:23:57.457Z,1024.58
2019-02-14T07:24:57.370Z,1024.61
2019-02-14T07:25:57.297Z,1024.65
2019-02-14T07:26:58.220Z,1024.65
2019-02-14T07:27:58.222Z,1024.67
2019-02-14T07:28:57.278Z,1024.69
2019-02-14T07:29:57.267Z,1024.71
2019-02-14T07:30:57.243Z,1024.66
2019-02-14T07:31:57.370Z,1024.68
2019-02-14T07:32:57.234Z,1024.64
2019-02-14T07:33:57.245Z,1024.66
2019-02-14T07:34:57.213Z,1024.66
2019-02-14T07:35:57.160Z,1024.69
2019-02-14T07:36:57.171Z,1024.64
2019-02-14T07:37:57.242Z,1024.64
2019-02-14T07:38:57.122Z,1024.64
2019-02-14T07:39:57.186Z,1024.61
2019-02-14T07:40:57.230Z,1024.62
2019-02-14T07:41:57.109Z,1024.61
2019-02-14T07:42:57.168Z,1024.65
2019-02-14T07:43:57.050Z,1024.67
2019-02-14T07:44:57.034Z,1024.67
2019-02-14T07:45:57.076Z,1024.67
2019-02-14T07:46:57.033Z,1024.65
2019-02-14T07:47:57.056Z,1024.66
2019-02-14T07:48:57.134Z,1024.66
2019-02-14T07:49:56.991Z,1024.73
2019-02-14T07:50:56.952Z,1024.72
2019-02-14T07:51:56.941Z,1024.69
2019-02-14T07:52:56.943Z,1024.71
2019-02-14T07:53:56.913Z,1024.75
2019-02-14T07:54:56.931Z,1024.71
2019-02-14T07:55:56.910Z,1024.74
2019-02-14T07:56:56.918Z,1024.76
2019-02-14T07:57:57.002Z,1024.75
2019-02-14T07:58:56.858Z,1024.79
2019-02-14T07:59:56.864Z,1024.78
2019-02-14T08:00:56.806Z,1024.76
2019-02-14T08:01:56.880Z,1024.74
2019-02-14T08:02:56.796Z,1024.77
2019-02-14T08:03:56.769Z,1024.75
2019-02-14T08:04:56.789Z,1024.78
2019-02-14T08:05:56.752Z,1024.82
2019-02-14T08:06:56.739Z,1024.84
2019-02-14T08:07:56.741Z,1024.84
2019-02-14T08:08:56.734Z,1024.85
2019-02-14T08:09:56.782Z,1024.87
2019-02-14T08:10:56.670Z,1024.88
2019-02-14T08:11:56.686Z,1024.86
2019-02-14T08:12:56.669Z,1024.88
2019-02-14T08:13:56.665Z,1024.90
2019-02-14T08:14:56.616Z,1024.89
2019-02-14T08:15:56.709Z,1024.91
2019-02-14T08:16:56.626Z,1024.93
2019-02-14T08:17:56.574Z,1024.91
2019-02-14T08:18:56.587Z,1024.93
2019-02-14T08:19:56.539Z,1024.90
2019-02-14T08:20:56.541Z,1024.88
2019-02-14T08:21:56.549Z,1024.85
2019-02-14T08:22:56.554Z,1024.84
2019-02-14T08:23:56.511Z,1024.83
2019-02-14T08:24:56.483Z,1024.83
2019-02-14T08:25:56.466Z,1024.81
2019-02-14T08:26:56.488Z,1024.82
2019-02-14T08:27:56.486Z,1024.86
2019-02-14T08:28:56.444Z,1024.87
2019-02-14T08:29:56.471Z,1024.90
2019-02-14T08:30:56.391Z,1024.93
2019-02-14T08:31:56.438Z,1024.95
2019-02-14T08:32:56.393Z,1024.91
2019-02-14T08:33:56.386Z,1024.93
2019-02-14T08:34:56.366Z,1024.94
2019-02-14T08:35:56.348Z,1024.93
2019-02-14T08:36:56.345Z,1024.97
2019-02-14T08:37:56.352Z,1024.99
2019-02-14T08:38:56.317Z,1024.98
2019-02-14T08:39:56.277Z,1024.97
2019-02-14T08:40:56.258Z,1024.95
2019-02-14T08:41:56.262Z,1024.98
2019-02-14T08:42:56.256Z,1025.00
2019-02-14T08:43:56.225Z,1025.00
2019-02-14T08:44:56.201Z,1025.01
2019-02-14T08:45:56.191Z,1025.06
2019-02-14T08:46:56.202Z,1025.09
2019-02-14T08:47:56.227Z,1025.05
2019-02-14T08:48:56.169Z,1025.08
2019-02-14T08:49:56.134Z,1025.10
2019-02-14T08:50:56.133Z,1025.08
2019-02-14T08:51:56.103Z,1025.05
2019-02-14T08:52:56.115Z,1025.05
2019-02-14T08:53:56.143Z,1025.04
2019-02-14T08:54:56.128Z,1025.02
2019-02-14T08:55:56.134Z,1025.02
2019-02-14T08:56:56.045Z,1025.09
2019-02-14T08:57:56.062Z,1025.05
2019-02-14T08:58:56.045Z,1025.05
2019-02-14T08:59:56.073Z,1025.05
2019-02-14T09:00:56.015Z,1025.05
2019-02-14T09:01:57.495Z,1025.07
2019-02-14T09:02:55.974Z,1025.00
2019-02-14T09:03:55.997Z,1025.06
2019-02-14T09:04:55.968Z,1025.05
2019-02-14T09:05:55.983Z,1025.07
2019-02-14T09:06:55.930Z,1025.06
2019-02-14T09:07:55.933Z,1025.11
2019-02-14T09:08:55.908Z,1025.11
2019-02-14T09:09:55.901Z,1025.12
2019-02-14T09:10:55.864Z,1025.10
2019-02-14T09:11:55.914Z,1025.12
2019-02-14T09:12:55.842Z,1025.16
2019-02-14T09:13:55.846Z,1025.11
2019-02-14T09:14:55.851Z,1025.09
2019-02-14T09:15:55.815Z,1025.09
2019-02-14T09:16:55.940Z,1025.00
2019-02-14T09:17:55.855Z,1025.05
2019-02-14T09:18:55.819Z,1025.04
2019-02-14T09:19:55.818Z,1025.06
2019-02-14T09:20:55.775Z,1025.09
2019-02-14T09:21:55.829Z,1025.12
2019-02-14T09:22:55.808Z,1025.14
2019-02-14T09:23:55.777Z,1025.14
2019-02-14T09:24:55.843Z,1025.11
2019-02-14T09:25:55.800Z,1025.11
2019-02-14T09:26:55.751Z,1025.12
2019-02-14T09:27:55.670Z,1025.08
2019-02-14T09:28:55.674Z,1025.12
2019-02-14T09:29:55.725Z,1025.07
2019-02-14T09:30:55.640Z,1025.10
2019-02-14T09:31:55.666Z,1025.07
2019-02-14T09:32:55.602Z,1025.08
2019-02-14T09:33:55.578Z,1025.10
2019-02-14T09:34:55.575Z,1025.12
2019-02-14T09:35:55.573Z,1025.12
2019-02-14T09:37:04.253Z,1025.12
2019-02-14T09:39:00.109Z,1025.15
2019-02-14T09:40:00.023Z,1025.15
2019-02-14T09:41:00.042Z,1025.14
2019-02-14T09:42:00.018Z,1025.15
2019-02-14T09:43:00.002Z,1025.14
2019-02-14T09:43:59.964Z,1025.12
2019-02-14T09:44:59.932Z,1025.16
2019-02-14T09:45:59.943Z,1025.14
2019-02-14T09:46:59.916Z,1025.17
2019-02-14T09:47:59.929Z,1025.11
2019-02-14T09:48:59.876Z,1025.12
2019-02-14T09:49:59.871Z,1025.13
2019-02-14T09:50:59.860Z,1025.16
2019-02-14T09:51:59.842Z,1025.18
2019-02-14T09:52:59.842Z,1025.13
2019-02-14T09:53:59.812Z,1025.12
2019-02-14T09:54:59.834Z,1025.14
2019-02-14T09:55:59.807Z,1025.12
2019-02-14T09:56:59.778Z,1025.15
2019-02-14T09:57:59.816Z,1025.13
2019-02-14T09:58:59.771Z,1025.14
2019-02-14T09:59:59.749Z,1025.12
2019-02-14T10:00:59.780Z,1025.13
2019-02-14T10:01:59.741Z,1025.09
2019-02-14T10:02:59.710Z,1025.10
2019-02-14T10:03:59.718Z,1025.07
2019-02-14T10:04:59.693Z,1025.12
2019-02-14T10:05:59.692Z,1025.09
2019-02-14T10:06:59.722Z,1025.14
2019-02-14T10:07:59.682Z,1025.16
2019-02-14T10:09:00.727Z,1025.18
2019-02-14T10:09:59.663Z,1025.17
2019-02-14T10:10:59.662Z,1025.16
2019-02-14T10:11:59.629Z,1025.14
2019-02-14T10:12:59.635Z,1025.13
2019-02-14T10:13:59.619Z,1025.15
2019-02-14T10:14:59.603Z,1025.06
2019-02-14T10:15:59.616Z,1025.05
2019-02-14T10:16:59.574Z,1025.05
2019-02-14T10:17:59.570Z,1025.02
2019-02-14T10:18:59.602Z,1025.01
2019-02-14T10:19:59.536Z,1025.03
2019-02-14T10:20:59.528Z,1024.96
2019-02-14T10:21:59.521Z,1024.97
2019-02-14T10:22:59.487Z,1024.97
2019-02-14T10:23:59.503Z,1024.98
2019-02-14T10:24:59.468Z,1024.96
2019-02-14T10:25:59.463Z,1024.96
2019-02-14T10:26:59.448Z,1024.91
2019-02-14T10:27:59.485Z,1024.90
2019-02-14T10:28:59.479Z,1024.90
2019-02-14T10:29:59.411Z,1024.92
2019-02-14T10:30:59.399Z,1024.92
2019-02-14T10:31:59.425Z,1024.92
2019-02-14T10:32:59.380Z,1024.86
2019-02-14T10:33:59.388Z,1024.87
2019-02-14T10:34:59.369Z,1024.85
2019-02-14T10:35:59.347Z,1024.85
2019-02-14T10:36:59.378Z,1024.87
2019-02-14T10:37:59.343Z,1024.85
2019-02-14T10:38:59.379Z,1024.82
2019-02-14T10:39:59.404Z,1024.83
2019-02-14T10:40:59.323Z,1024.84
2019-02-14T10:41:59.357Z,1024.84
2019-02-14T10:42:59.302Z,1024.83
2019-02-14T10:43:59.265Z,1024.83
2019-02-14T10:44:59.287Z,1024.84
2019-02-14T10:45:59.279Z,1024.81
2019-02-14T10:46:59.262Z,1024.76
2019-02-14T10:47:59.253Z,1024.68
2019-02-14T10:48:59.218Z,1024.71
2019-02-14T10:49:59.275Z,1024.68
2019-02-14T10:50:59.191Z,1024.65
2019-02-14T10:51:59.223Z,1024.67
2019-02-14T10:52:59.172Z,1024.65
2019-02-14T10:53:59.191Z,1024.67
2019-02-14T10:54:59.179Z,1024.63
2019-02-14T10:55:59.184Z,1024.66
2019-02-14T10:56:59.138Z,1024.63
2019-02-14T10:57:59.138Z,1024.67
2019-02-14T10:58:59.289Z,1024.65
2019-02-14T10:59:59.104Z,1024.66
2019-02-14T11:00:59.090Z,1024.67
2019-02-14T11:01:59.080Z,1024.69
2019-02-14T11:02:59.117Z,1024.69
2019-02-14T11:03:59.069Z,1024.65
2019-02-14T11:04:59.093Z,1024.61
2019-02-14T11:05:59.061Z,1024.62
2019-02-14T11:06:59.054Z,1024.61
2019-02-14T11:07:59.048Z,1024.56
2019-02-14T11:08:59.059Z,1024.52
2019-02-14T11:09:59.039Z,1024.51
2019-02-14T11:10:59.001Z,1024.49
2019-02-14T11:11:59.002Z,1024.46
2019-02-14T11:12:59.012Z,1024.47
2019-02-14T11:13:58.962Z,1024.44
2019-02-14T11:14:58.958Z,1024.49
2019-02-14T11:15:58.979Z,1024.50
2019-02-14T11:16:58.980Z,1024.48
2019-02-14T11:17:58.935Z,1024.46
2019-02-14T11:18:58.974Z,1024.45
2019-02-14T11:19:58.908Z,1024.46
2019-02-14T11:20:58.928Z,1024.46
2019-02-14T11:21:58.923Z,1024.48
2019-02-14T11:22:58.925Z,1024.41
2019-02-14T11:23:58.908Z,1024.39
2019-02-14T11:24:59.356Z,1024.37
2019-02-14T11:25:58.845Z,1024.37
2019-02-14T11:26:58.920Z,1024.39
2019-02-14T11:27:58.845Z,1024.37
2019-02-14T11:28:58.842Z,1024.38
2019-02-14T11:29:58.824Z,1024.36
2019-02-14T11:30:58.843Z,1024.35
2019-02-14T11:31:58.795Z,1024.39
2019-02-14T11:32:58.791Z,1024.34
2019-02-14T11:33:58.803Z,1024.31
2019-02-14T11:34:58.826Z,1024.30
2019-02-14T11:35:58.787Z,1024.28
2019-02-14T11:36:58.832Z,1024.26
2019-02-14T11:37:58.733Z,1024.28
2019-02-14T11:38:58.765Z,1024.23
2019-02-14T11:39:58.718Z,1024.24
2019-02-14T11:40:58.707Z,1024.22
2019-02-14T11:41:58.726Z,1024.24
2019-02-14T11:42:58.686Z,1024.26
2019-02-14T11:43:58.755Z,1024.20
2019-02-14T11:44:58.696Z,1024.21
2019-02-14T11:45:59.832Z,1024.22
2019-02-14T11:46:58.665Z,1024.20
2019-02-14T11:47:58.707Z,1024.18
2019-02-14T11:48:58.708Z,1024.20
2019-02-14T11:49:58.719Z,1024.16
2019-02-14T11:50:58.675Z,1024.19
2019-02-14T11:51:58.605Z,1024.15
2019-02-14T11:52:58.620Z,1024.12
2019-02-14T11:53:58.617Z,1024.15
2019-02-14T11:54:58.629Z,1024.21
2019-02-14T11:55:58.625Z,1024.18
2019-02-14T11:56:58.565Z,1024.16
2019-02-14T11:57:58.554Z,1024.15
2019-02-14T11:58:58.551Z,1024.18
2019-02-14T11:59:58.540Z,1024.18
2019-02-14T12:00:58.549Z,1024.14
2019-02-14T12:01:58.527Z,1024.14
2019-02-14T12:02:58.570Z,1024.04
2019-02-14T12:03:58.507Z,1024.03
2019-02-14T12:04:58.496Z,1024.02
2019-02-14T12:05:58.494Z,1024.07
2019-02-14T12:06:58.486Z,1024.07
2019-02-14T12:07:58.554Z,1024.09
2019-02-14T12:09:00.397Z,1024.08
2019-02-14T12:09:58.484Z,1024.08
2019-02-14T12:10:58.442Z,1024.08
2019-02-14T12:11:58.460Z,1024.06
2019-02-14T12:12:58.430Z,1024.08
2019-02-14T12:13:58.414Z,1024.07
2019-02-14T12:14:58.526Z,1024.08
2019-02-14T12:15:58.398Z,1024.05
2019-02-14T12:16:58.390Z,1024.03
2019-02-14T12:17:58.449Z,1024.06
2019-02-14T12:18:58.377Z,1023.98
2019-02-14T12:19:58.443Z,1023.94
2019-02-14T12:20:58.476Z,1023.97
2019-02-14T12:21:58.376Z,1023.93
2019-02-14T12:22:58.375Z,1023.93